Hlavní strana
METAR-TAF:

METAR-TAF

Letiště :

Piacenza, Itálie

zeměpisná šířka: 44-55N, zeměpisná délka: 009-44E, výška: 134 m

Aktuální stav počasí

Zpráva byla vytvořena před 20 hodinami a 36 minutami, v 14:55 UTC
Východojihovýchodní vítr 7 kt
Teplota 7°C
Vlhkost vzduchu 53%
Tlak 1007 hPa
Viditelnost: 7000 m
Polojasno ve výšce 2500 ft

METAR: LIMS 201455Z 12007KT 7000 SCT025 07/M02 Q1007 RMK SCT VIS MIN 7000 WIND THR30 /////KT WHT

Čas: 12:31 (11:31 UTC)


TAF: chybějící

Stav a předpovědi počasí z více než 4 000 letišť (zprávy METAR a TAF).

Červené a žluté tečky na mapě představují dostupné meteorologické stanice.

Když kurzor umístíte na tečku, zobrazí se název stanice.

Pak kliknutím zobrazíte stav a předpověď počasí.

Chcete-li změnit mapu, kliknutím na zelené tlačítko se znaménkem +mapu přiblížíte, kliknutím na zelené tlačítko se znaménkem – mapu oddálíte a kliknutím na zelené šipky přejdete na sousední mapy.


METAR-TAF: